createdAt,value
2023-05-08T00:01:02.711Z,10.57
2023-05-08T00:03:31.288Z,10.57
2023-05-08T00:05:59.701Z,10.56
2023-05-08T00:08:28.017Z,10.56
2023-05-08T00:10:56.062Z,10.55
2023-05-08T00:13:24.460Z,10.54
2023-05-08T00:15:52.779Z,10.54
2023-05-08T00:18:21.481Z,10.53
2023-05-08T00:20:49.567Z,10.51
2023-05-08T00:23:17.650Z,10.49
2023-05-08T00:25:46.251Z,10.48
2023-05-08T00:28:14.295Z,10.47
2023-05-08T00:30:42.746Z,10.46
2023-05-08T00:33:11.765Z,10.44
2023-05-08T00:35:42.428Z,10.44
2023-05-08T00:38:11.254Z,10.44
2023-05-08T00:40:40.078Z,10.43
2023-05-08T00:43:08.121Z,10.40
2023-05-08T00:45:39.672Z,10.37
2023-05-08T00:48:08.299Z,10.33
2023-05-08T00:50:37.048Z,10.29
2023-05-08T00:53:05.601Z,10.25
2023-05-08T00:55:33.789Z,10.22
2023-05-08T00:58:02.154Z,10.19
2023-05-08T01:00:32.094Z,10.17
2023-05-08T01:03:02.103Z,10.15
2023-05-08T01:05:31.099Z,10.13
2023-05-08T01:08:00.064Z,10.11
2023-05-08T01:10:38.960Z,10.08
2023-05-08T01:13:32.672Z,10.06
2023-05-08T01:16:17.032Z,10.04
2023-05-08T01:19:11.984Z,10.03
2023-05-08T01:21:46.234Z,10.03
2023-05-08T01:24:24.720Z,10.01
2023-05-08T01:27:01.842Z,10.01
2023-05-08T01:29:49.172Z,10.00
2023-05-08T01:32:30.391Z,10.00
2023-05-08T01:35:07.929Z,10.00
2023-05-08T01:37:42.573Z,9.99
2023-05-08T01:40:25.520Z,9.98
2023-05-08T01:43:32.460Z,9.96
2023-05-08T01:46:09.517Z,9.95
2023-05-08T01:48:49.532Z,9.95
2023-05-08T01:51:21.894Z,9.95
2023-05-08T01:54:01.363Z,9.94
2023-05-08T01:56:30.633Z,9.94
2023-05-08T01:59:01.862Z,9.93
2023-05-08T02:01:33.496Z,9.92
2023-05-08T02:04:03.668Z,9.90
2023-05-08T02:06:32.458Z,9.88
2023-05-08T02:09:01.965Z,9.87
2023-05-08T02:11:33.709Z,9.85
2023-05-08T02:14:03.197Z,9.83
2023-05-08T02:16:33.148Z,9.80
2023-05-08T02:19:03.077Z,9.78
2023-05-08T02:21:32.329Z,9.74
2023-05-08T02:24:01.693Z,9.71
2023-05-08T02:26:31.721Z,9.69
2023-05-08T02:29:03.161Z,9.68
2023-05-08T02:31:32.018Z,9.67
2023-05-08T02:34:01.052Z,9.66
2023-05-08T02:36:30.885Z,9.65
2023-05-08T02:39:01.409Z,9.64
2023-05-08T02:41:33.038Z,9.64
2023-05-08T02:44:01.367Z,9.64
2023-05-08T02:46:39.813Z,9.63
2023-05-08T02:49:20.652Z,9.64
2023-05-08T02:51:59.825Z,9.64
2023-05-08T02:55:15.357Z,9.65
2023-05-08T02:57:48.699Z,9.66
2023-05-08T03:00:19.124Z,9.66
2023-05-08T03:03:00.446Z,9.67
2023-05-08T03:05:38.745Z,9.68
2023-05-08T03:08:14.758Z,9.69
2023-05-08T03:10:46.471Z,9.69
2023-05-08T03:13:16.847Z,9.70
2023-05-08T03:15:56.519Z,9.72
2023-05-08T03:19:07.469Z,9.73
2023-05-08T03:21:38.671Z,9.74
2023-05-08T03:24:09.359Z,9.75
2023-05-08T03:26:37.756Z,9.75
2023-05-08T03:29:06.741Z,9.76
2023-05-08T03:31:36.447Z,9.78
2023-05-08T03:34:05.512Z,9.79
2023-05-08T03:36:34.456Z,9.79
2023-05-08T03:39:03.493Z,9.80
2023-05-08T03:41:32.208Z,9.82
2023-05-08T03:44:03.517Z,9.83
2023-05-08T03:46:33.420Z,9.84
2023-05-08T03:49:05.082Z,9.84
2023-05-08T03:51:33.581Z,9.84
2023-05-08T03:54:01.727Z,9.84
2023-05-08T03:56:29.928Z,9.85
2023-05-08T03:59:28.309Z,9.87
2023-05-08T04:02:25.804Z,9.88
2023-05-08T04:05:02.624Z,9.90
2023-05-08T04:07:59.602Z,9.93
2023-05-08T04:10:31.237Z,9.96
2023-05-08T04:13:10.817Z,9.99
2023-05-08T04:15:52.138Z,10.03
2023-05-08T04:18:29.026Z,10.05
2023-05-08T04:20:59.945Z,10.07
2023-05-08T04:23:29.950Z,10.09
2023-05-08T04:26:00.639Z,10.13
2023-05-08T04:28:29.577Z,10.15
2023-05-08T04:30:58.690Z,10.17
2023-05-08T04:33:28.726Z,10.18
2023-05-08T04:36:01.223Z,10.19
2023-05-08T04:38:29.482Z,10.22
2023-05-08T04:40:57.572Z,10.23
2023-05-08T04:43:25.817Z,10.24
2023-05-08T04:45:53.947Z,10.25
2023-05-08T04:48:22.557Z,10.25
2023-05-08T04:50:50.879Z,10.25
2023-05-08T04:53:19.743Z,10.25
2023-05-08T04:55:48.662Z,10.26
2023-05-08T04:58:16.713Z,10.27
2023-05-08T05:00:45.043Z,10.27
2023-05-08T05:03:13.347Z,10.30
2023-05-08T05:05:41.755Z,10.32
2023-05-08T05:08:10.319Z,10.34
2023-05-08T05:10:40.116Z,10.34
2023-05-08T05:13:09.352Z,10.36
2023-05-08T05:15:37.510Z,10.38
2023-05-08T05:18:06.021Z,10.38
2023-05-08T05:20:59.638Z,10.39
2023-05-08T05:23:28.499Z,10.41
2023-05-08T05:25:56.713Z,10.44
2023-05-08T05:28:24.828Z,10.46
2023-05-08T05:30:53.676Z,10.49
2023-05-08T05:33:22.174Z,10.53
2023-05-08T05:35:50.766Z,10.58
2023-05-08T05:38:19.254Z,10.65
2023-05-08T05:40:48.001Z,10.73
2023-05-08T05:43:16.516Z,10.82
2023-05-08T05:45:44.815Z,10.91
2023-05-08T05:48:12.950Z,10.97
2023-05-08T05:50:41.532Z,11.04
2023-05-08T05:53:10.599Z,11.09
2023-05-08T05:55:39.152Z,11.14
2023-05-08T05:58:07.318Z,11.19
2023-05-08T06:00:36.021Z,11.20
2023-05-08T06:03:05.703Z,11.22
2023-05-08T06:05:33.952Z,11.26
2023-05-08T06:08:02.158Z,11.29
2023-05-08T06:10:30.408Z,11.32
2023-05-08T06:12:58.706Z,11.35
2023-05-08T06:15:27.587Z,11.37
2023-05-08T06:17:56.106Z,11.39
2023-05-08T06:20:26.275Z,11.41
2023-05-08T06:22:54.823Z,11.44
2023-05-08T06:25:23.190Z,11.45
2023-05-08T06:27:51.448Z,11.47
2023-05-08T06:30:19.734Z,11.50
2023-05-08T06:32:47.841Z,11.53
2023-05-08T06:35:18.734Z,11.58
2023-05-08T06:37:46.902Z,11.62
2023-05-08T06:40:15.098Z,11.67
2023-05-08T06:42:43.231Z,11.72
2023-05-08T06:45:11.521Z,11.76
2023-05-08T06:47:40.152Z,11.79
2023-05-08T06:50:08.723Z,11.83
2023-05-08T06:52:37.034Z,11.86
2023-05-08T06:55:05.597Z,11.87
2023-05-08T06:57:33.809Z,11.86
2023-05-08T07:00:02.091Z,11.86
2023-05-08T07:02:30.218Z,11.87
2023-05-08T07:04:58.439Z,11.87
2023-05-08T07:07:26.913Z,11.88
2023-05-08T07:09:54.981Z,11.89
2023-05-08T07:12:23.174Z,11.91
2023-05-08T07:14:51.402Z,11.96
2023-05-08T07:17:19.514Z,12.00
2023-05-08T07:19:51.378Z,12.07
2023-05-08T07:22:19.633Z,12.15
2023-05-08T07:24:47.859Z,12.24
2023-05-08T07:27:16.757Z,12.30
2023-05-08T07:29:44.924Z,12.36
2023-05-08T07:32:13.059Z,12.44
2023-05-08T07:34:41.854Z,12.46
2023-05-08T07:37:10.706Z,12.45
2023-05-08T07:39:38.741Z,12.43
2023-05-08T07:42:06.976Z,12.43
2023-05-08T07:44:46.988Z,12.39
2023-05-08T07:47:22.061Z,12.33
2023-05-08T07:49:50.355Z,12.28
2023-05-08T07:52:18.452Z,12.19
2023-05-08T07:54:46.607Z,12.09
2023-05-08T07:57:14.649Z,12.01
2023-05-08T07:59:42.809Z,11.92
2023-05-08T08:02:10.881Z,11.84
2023-05-08T08:04:39.695Z,11.78
2023-05-08T08:07:07.914Z,11.73
2023-05-08T08:09:36.052Z,11.68
2023-05-08T08:12:04.193Z,11.62
2023-05-08T08:14:32.546Z,11.62
2023-05-08T08:17:00.640Z,11.63
2023-05-08T08:19:28.750Z,11.63
2023-05-08T08:21:56.911Z,11.63
2023-05-08T08:24:25.754Z,11.61
2023-05-08T08:26:53.825Z,11.61
2023-05-08T08:29:21.844Z,11.60
2023-05-08T08:31:50.127Z,11.60
2023-05-08T08:34:18.621Z,11.60
2023-05-08T08:36:46.824Z,11.64
2023-05-08T08:39:15.493Z,11.67
2023-05-08T08:41:43.972Z,11.69
2023-05-08T08:44:12.343Z,11.71
2023-05-08T08:46:50.512Z,11.75
2023-05-08T08:49:25.000Z,11.81
2023-05-08T08:51:58.708Z,11.85
2023-05-08T08:54:30.767Z,11.85
2023-05-08T08:57:02.154Z,11.87
2023-05-08T08:59:31.174Z,11.92
2023-05-08T09:02:04.620Z,11.99
2023-05-08T09:04:32.762Z,12.08
2023-05-08T09:07:01.377Z,12.16
2023-05-08T09:09:29.592Z,12.24
2023-05-08T09:11:58.248Z,12.32
2023-05-08T09:14:27.142Z,12.39
2023-05-08T09:16:55.253Z,12.47
2023-05-08T09:19:27.096Z,12.51
2023-05-08T09:22:00.967Z,12.56
2023-05-08T09:24:56.080Z,12.61
2023-05-08T09:27:28.762Z,12.69
2023-05-08T09:30:05.128Z,12.79
2023-05-08T09:32:35.757Z,12.88
2023-05-08T09:35:05.950Z,12.95
2023-05-08T09:37:37.240Z,13.01
2023-05-08T09:40:21.055Z,13.03
2023-05-08T09:42:50.922Z,13.06
2023-05-08T09:45:33.426Z,13.10
2023-05-08T09:48:01.579Z,13.16
2023-05-08T09:50:29.806Z,13.23
2023-05-08T09:52:58.040Z,13.28
2023-05-08T09:55:26.317Z,13.32
2023-05-08T09:57:59.883Z,13.35
2023-05-08T10:00:30.171Z,13.36
2023-05-08T10:03:03.478Z,13.33
2023-05-08T10:05:34.820Z,13.31
2023-05-08T10:08:23.691Z,13.28
2023-05-08T10:10:51.801Z,13.27
2023-05-08T10:13:19.896Z,13.28
2023-05-08T10:15:54.947Z,13.29
2023-05-08T10:18:29.002Z,13.28
2023-05-08T10:21:02.456Z,13.28
2023-05-08T10:23:31.184Z,13.30
2023-05-08T10:26:08.202Z,13.32
2023-05-08T10:28:39.402Z,13.35
2023-05-08T10:31:10.248Z,13.38
2023-05-08T10:33:41.245Z,13.43
2023-05-08T10:36:10.333Z,13.49
2023-05-08T10:38:41.573Z,13.58
2023-05-08T10:41:11.275Z,13.66
2023-05-08T10:43:43.073Z,13.72
2023-05-08T10:46:27.255Z,13.76
2023-05-08T10:49:18.672Z,13.82
2023-05-08T10:52:08.295Z,13.87
2023-05-08T10:55:02.296Z,13.94
2023-05-08T10:57:31.816Z,14.05
2023-05-08T10:59:59.918Z,14.14
2023-05-08T11:02:37.013Z,14.19
2023-05-08T11:05:18.785Z,14.22
2023-05-08T11:07:55.795Z,14.26
2023-05-08T11:10:32.219Z,14.28
2023-05-08T11:13:01.376Z,14.30
2023-05-08T11:15:40.662Z,14.30
2023-05-08T11:18:11.465Z,14.30
2023-05-08T11:20:42.422Z,14.31
2023-05-08T11:23:33.694Z,14.35
2023-05-08T11:26:12.470Z,14.34
2023-05-08T11:28:56.718Z,14.29
2023-05-08T11:31:44.885Z,14.23
2023-05-08T11:34:48.771Z,14.12
2023-05-08T11:37:17.938Z,13.94
2023-05-08T11:39:47.684Z,13.78
2023-05-08T11:42:25.284Z,13.61
2023-05-08T11:45:07.223Z,13.53
2023-05-08T11:47:44.139Z,13.50
2023-05-08T11:50:14.483Z,13.51
2023-05-08T11:52:43.665Z,13.50
2023-05-08T11:55:13.980Z,13.49
2023-05-08T11:57:42.086Z,13.47
2023-05-08T12:00:12.760Z,13.42
2023-05-08T12:02:46.759Z,13.45
2023-05-08T12:05:15.084Z,13.50
2023-05-08T12:07:44.974Z,13.55
2023-05-08T12:10:14.880Z,13.59
2023-05-08T12:12:45.108Z,13.63
2023-05-08T12:15:15.225Z,13.66
2023-05-08T12:17:43.777Z,13.74
2023-05-08T12:20:17.567Z,13.83
2023-05-08T12:22:53.546Z,13.89
2023-05-08T12:25:21.770Z,13.94
2023-05-08T12:27:50.010Z,13.97
2023-05-08T12:30:18.739Z,14.00
2023-05-08T12:32:47.792Z,14.05
2023-05-08T12:35:16.774Z,14.07
2023-05-08T12:37:47.226Z,14.10
2023-05-08T12:40:30.157Z,14.11
2023-05-08T12:43:01.878Z,14.14
2023-05-08T12:45:33.978Z,14.18
2023-05-08T12:48:13.704Z,14.21
2023-05-08T12:50:43.871Z,14.24
2023-05-08T12:53:18.315Z,14.31
2023-05-08T12:55:57.932Z,14.37
2023-05-08T12:58:31.862Z,14.41
2023-05-08T13:01:12.058Z,14.44
2023-05-08T13:03:41.623Z,14.47
2023-05-08T13:06:21.189Z,14.53
2023-05-08T13:08:55.235Z,14.53
2023-05-08T13:11:33.369Z,14.50
2023-05-08T13:14:01.736Z,14.41
2023-05-08T13:16:29.864Z,14.35
2023-05-08T13:18:57.972Z,14.34
2023-05-08T13:21:27.827Z,14.30
2023-05-08T13:23:56.830Z,14.23
2023-05-08T13:26:25.853Z,14.13
2023-05-08T13:28:56.219Z,14.06
2023-05-08T13:31:25.049Z,14.01
2023-05-08T13:33:53.206Z,14.02
2023-05-08T13:36:21.687Z,14.05
2023-05-08T13:38:51.700Z,14.08
2023-05-08T13:41:20.379Z,14.10
2023-05-08T13:43:48.688Z,14.11
2023-05-08T13:46:16.832Z,14.11
2023-05-08T13:48:45.007Z,14.12
2023-05-08T13:51:13.140Z,14.13
2023-05-08T13:53:41.313Z,14.16
2023-05-08T13:56:10.050Z,14.19
2023-05-08T13:58:38.473Z,14.20
2023-05-08T14:01:21.971Z,14.18
2023-05-08T14:03:55.800Z,14.18
2023-05-08T14:06:24.233Z,14.22
2023-05-08T14:08:54.645Z,14.24
2023-05-08T14:11:25.005Z,14.22
2023-05-08T14:13:53.530Z,14.19
2023-05-08T14:16:22.065Z,14.20
2023-05-08T14:18:50.338Z,14.19
2023-05-08T14:21:18.390Z,14.21
2023-05-08T14:23:46.689Z,14.20
2023-05-08T14:26:15.003Z,14.19
2023-05-08T14:28:43.176Z,14.17
2023-05-08T14:31:11.476Z,14.10
2023-05-08T14:33:39.914Z,14.05
2023-05-08T14:36:08.791Z,14.04
2023-05-08T14:38:37.178Z,14.04
2023-05-08T14:41:05.356Z,14.10
2023-05-08T14:43:33.801Z,14.17
2023-05-08T14:46:02.838Z,14.17
2023-05-08T14:48:31.188Z,14.12
2023-05-08T14:50:59.370Z,14.09
2023-05-08T14:53:27.710Z,14.04
2023-05-08T14:55:56.463Z,14.00
2023-05-08T14:58:24.739Z,13.99
2023-05-08T15:00:52.968Z,14.01
2023-05-08T15:03:21.544Z,14.05
2023-05-08T15:05:49.838Z,14.09
2023-05-08T15:08:17.992Z,14.12
2023-05-08T15:10:46.140Z,14.16
2023-05-08T15:13:14.256Z,14.20
2023-05-08T15:15:42.489Z,14.21
2023-05-08T15:18:11.081Z,14.22
2023-05-08T15:20:39.347Z,14.24
2023-05-08T15:23:07.543Z,14.26
2023-05-08T15:25:35.717Z,14.29
2023-05-08T15:28:03.946Z,14.28
2023-05-08T15:30:32.101Z,14.23
2023-05-08T15:33:00.417Z,14.16
2023-05-08T15:35:28.683Z,14.10
2023-05-08T15:37:56.831Z,14.05
2023-05-08T15:40:24.934Z,13.98
2023-05-08T15:42:52.997Z,13.91
2023-05-08T15:45:21.329Z,13.84
2023-05-08T15:47:49.485Z,13.80
2023-05-08T15:50:17.869Z,13.79
2023-05-08T15:52:46.007Z,13.83
2023-05-08T15:55:14.496Z,13.83
2023-05-08T15:57:43.250Z,13.78
2023-05-08T16:00:12.094Z,13.70
2023-05-08T16:02:40.153Z,13.67
2023-05-08T16:05:08.606Z,13.60
2023-05-08T16:07:36.723Z,13.56
2023-05-08T16:10:07.250Z,13.52
2023-05-08T16:12:35.691Z,13.42
2023-05-08T16:15:03.960Z,13.30
2023-05-08T16:17:32.835Z,13.22
2023-05-08T16:20:01.776Z,13.13
2023-05-08T16:22:30.958Z,13.04
2023-05-08T16:24:58.995Z,12.94
2023-05-08T16:27:28.489Z,12.94
2023-05-08T16:29:56.645Z,12.90
2023-05-08T16:32:27.163Z,12.82
2023-05-08T16:34:55.442Z,12.74
2023-05-08T16:37:23.615Z,12.66
2023-05-08T16:39:52.219Z,12.58
2023-05-08T16:42:20.947Z,12.48
2023-05-08T16:44:49.049Z,12.41
2023-05-08T16:47:17.189Z,12.34
2023-05-08T16:49:45.388Z,12.27
2023-05-08T16:52:13.537Z,12.19
2023-05-08T16:54:41.529Z,12.09
2023-05-08T16:57:09.732Z,12.00
2023-05-08T16:59:37.789Z,11.90
2023-05-08T17:02:05.898Z,11.80
2023-05-08T17:04:34.047Z,11.71
2023-05-08T17:07:05.117Z,11.64
2023-05-08T17:09:34.843Z,11.56
2023-05-08T17:12:03.416Z,11.47
2023-05-08T17:14:31.665Z,11.38
2023-05-08T17:16:59.845Z,11.30
2023-05-08T17:19:28.462Z,11.23
2023-05-08T17:21:58.964Z,11.16
2023-05-08T17:24:30.436Z,11.07
2023-05-08T17:26:58.888Z,10.98
2023-05-08T17:29:27.125Z,10.90
2023-05-08T17:31:56.072Z,10.82
2023-05-08T17:34:24.475Z,10.74
2023-05-08T17:36:55.013Z,10.65
2023-05-08T17:39:23.542Z,10.58
2023-05-08T17:41:52.022Z,10.50
2023-05-08T17:44:20.282Z,10.41
2023-05-08T17:46:48.539Z,10.35
2023-05-08T17:49:19.391Z,10.29
2023-05-08T17:51:47.794Z,10.22
2023-05-08T17:54:16.598Z,10.15
2023-05-08T17:56:45.573Z,10.08
2023-05-08T17:59:13.797Z,10.02
2023-05-08T18:01:41.963Z,9.96
2023-05-08T18:04:10.072Z,9.90
2023-05-08T18:06:38.181Z,9.83
2023-05-08T18:09:06.642Z,9.77
2023-05-08T18:11:34.823Z,9.71
2023-05-08T18:14:03.019Z,9.64
2023-05-08T18:16:31.479Z,9.58
2023-05-08T18:18:59.663Z,9.51
2023-05-08T18:21:29.056Z,9.43
2023-05-08T18:23:57.342Z,9.36
2023-05-08T18:26:25.606Z,9.29
2023-05-08T18:28:54.359Z,9.22
2023-05-08T18:31:22.572Z,9.14
2023-05-08T18:33:50.681Z,9.08
2023-05-08T18:36:18.878Z,9.03
2023-05-08T18:38:47.160Z,8.98
2023-05-08T18:41:15.298Z,8.95
2023-05-08T18:43:43.621Z,8.91
2023-05-08T18:46:12.990Z,8.89
2023-05-08T18:48:41.480Z,8.85
2023-05-08T18:51:10.418Z,8.82
2023-05-08T18:53:39.467Z,8.79
2023-05-08T18:56:07.604Z,8.75
2023-05-08T18:58:36.008Z,8.70
2023-05-08T19:01:06.181Z,8.67
2023-05-08T19:03:34.375Z,8.62
2023-05-08T19:06:02.521Z,8.58
2023-05-08T19:08:30.686Z,8.54
2023-05-08T19:10:58.749Z,8.50
2023-05-08T19:13:29.184Z,8.46
2023-05-08T19:15:57.455Z,8.41
2023-05-08T19:18:28.360Z,8.38
2023-05-08T19:20:56.501Z,8.35
2023-05-08T19:23:24.531Z,8.32
2023-05-08T19:25:53.045Z,8.28
2023-05-08T19:28:21.409Z,8.25
2023-05-08T19:30:49.694Z,8.22
2023-05-08T19:33:20.852Z,8.18
2023-05-08T19:35:49.674Z,8.13
2023-05-08T19:38:18.227Z,8.09
2023-05-08T19:40:56.364Z,8.04
2023-05-08T19:43:26.737Z,7.97
2023-05-08T19:45:56.142Z,7.91
2023-05-08T19:48:24.822Z,7.85
2023-05-08T19:50:55.093Z,7.79
2023-05-08T19:53:24.227Z,7.74
2023-05-08T19:55:53.273Z,7.68
2023-05-08T19:58:21.444Z,7.63
2023-05-08T20:00:51.223Z,7.57
2023-05-08T20:03:20.425Z,7.51
2023-05-08T20:05:48.890Z,7.45
2023-05-08T20:08:17.172Z,7.38
2023-05-08T20:10:49.580Z,7.33
2023-05-08T20:13:18.073Z,7.25
2023-05-08T20:15:46.383Z,7.19
2023-05-08T20:18:14.725Z,7.12
2023-05-08T20:20:43.918Z,7.05
2023-05-08T20:23:12.418Z,6.99
2023-05-08T20:25:40.773Z,6.92
2023-05-08T20:28:08.992Z,6.87
2023-05-08T20:30:37.269Z,6.80
2023-05-08T20:33:05.791Z,6.74
2023-05-08T20:35:35.460Z,6.67
2023-05-08T20:38:03.654Z,6.60
2023-05-08T20:40:32.009Z,6.55
2023-05-08T20:43:00.350Z,6.48
2023-05-08T20:45:28.644Z,6.43
2023-05-08T20:47:56.932Z,6.37
2023-05-08T20:50:25.205Z,6.31
2023-05-08T20:52:53.645Z,6.27
2023-05-08T20:55:21.828Z,6.21
2023-05-08T20:57:50.845Z,6.15
2023-05-08T21:00:19.496Z,6.10
2023-05-08T21:02:47.887Z,6.04
2023-05-08T21:05:17.119Z,5.99
2023-05-08T21:07:45.433Z,5.93
2023-05-08T21:10:13.898Z,5.90
2023-05-08T21:12:44.666Z,5.86
2023-05-08T21:15:13.102Z,5.82
2023-05-08T21:17:41.553Z,5.79
2023-05-08T21:20:10.327Z,5.75
2023-05-08T21:22:38.521Z,5.71
2023-05-08T21:25:16.872Z,5.68
2023-05-08T21:27:45.146Z,5.65
2023-05-08T21:30:16.544Z,5.63
2023-05-08T21:32:46.065Z,5.61
2023-05-08T21:35:15.861Z,5.57
2023-05-08T21:37:44.236Z,5.53
2023-05-08T21:40:12.526Z,5.49
2023-05-08T21:42:40.833Z,5.44
2023-05-08T21:45:09.675Z,5.39
2023-05-08T21:47:38.032Z,5.35
2023-05-08T21:50:07.370Z,5.30
2023-05-08T21:52:35.857Z,5.26
2023-05-08T21:55:08.619Z,5.23
2023-05-08T21:57:37.345Z,5.20
2023-05-08T22:00:08.347Z,5.19
2023-05-08T22:02:36.775Z,5.17
2023-05-08T22:05:06.583Z,5.15
2023-05-08T22:07:34.844Z,5.12
2023-05-08T22:10:05.694Z,5.09
2023-05-08T22:12:33.910Z,5.05
2023-05-08T22:15:02.296Z,5.01
2023-05-08T22:17:30.549Z,4.96
2023-05-08T22:19:58.702Z,4.92
2023-05-08T22:22:26.871Z,4.89
2023-05-08T22:24:55.136Z,4.85
2023-05-08T22:27:23.238Z,4.84
2023-05-08T22:29:52.223Z,4.81
2023-05-08T22:32:20.406Z,4.80
2023-05-08T22:34:50.123Z,4.78
2023-05-08T22:37:19.753Z,4.78
2023-05-08T22:39:49.088Z,4.79
2023-05-08T22:42:17.669Z,4.81
2023-05-08T22:44:46.793Z,4.85
2023-05-08T22:47:15.146Z,4.87
2023-05-08T22:49:43.649Z,4.90
2023-05-08T22:52:11.853Z,4.93
2023-05-08T22:54:40.058Z,4.97
2023-05-08T22:57:08.894Z,5.03
2023-05-08T22:59:37.234Z,5.08
2023-05-08T23:02:05.371Z,5.12
2023-05-08T23:04:33.776Z,5.16
2023-05-08T23:07:02.353Z,5.19
2023-05-08T23:09:31.596Z,5.22
2023-05-08T23:11:59.682Z,5.25
2023-05-08T23:14:27.953Z,5.29
2023-05-08T23:16:56.291Z,5.31
2023-05-08T23:19:24.445Z,5.34
2023-05-08T23:21:52.650Z,5.36
2023-05-08T23:24:20.760Z,5.37
2023-05-08T23:26:49.881Z,5.39
2023-05-08T23:29:18.156Z,5.42
2023-05-08T23:31:46.561Z,5.45
2023-05-08T23:34:14.656Z,5.48
2023-05-08T23:36:42.961Z,5.50
2023-05-08T23:39:11.342Z,5.52
2023-05-08T23:41:39.515Z,5.55
2023-05-08T23:44:07.694Z,5.58
2023-05-08T23:46:35.846Z,5.62
2023-05-08T23:49:05.909Z,5.66
2023-05-08T23:51:34.014Z,5.69
2023-05-08T23:54:02.267Z,5.72
2023-05-08T23:56:31.035Z,5.75
2023-05-08T23:58:59.308Z,5.79
